Time;durP1;ratioP1;P1;durP2;ratioP2;P2;SDS_P1;SDS_P2;PMS_P1;PMS_P2;Temp;Humidity;BMP_temperature;BMP_pressure;BME280_temperature;BME280_humidity;BME280_pressure;Samples;Min_cycle;Max_cycle;Signal;HPM_P1;HPM_P2
2021/09/12 00:00:12;;;;;;;13.80;12.20;;;;;;;16.78;71.16;98757.83;232688;1204;26368;-73
2021/09/12 00:05:21;;;;;;;17.10;13.40;;;;;;;16.76;71.18;98757.50;232555;1205;22471;-72
2021/09/12 00:10:38;;;;;;;14.20;11.30;;;;;;;16.66;71.27;98750.02;232639;1207;25277;-73
2021/09/12 00:15:42;;;;;;;16.70;12.40;;;;;;;16.61;71.32;98751.77;232677;1204;24082;-72
2021/09/12 00:20:46;;;;;;;15.70;13.00;;;;;;;16.62;71.48;98748.41;232859;1204;24078;-73
2021/09/12 00:25:52;;;;;;;15.60;13.20;;;;;;;16.63;71.58;98746.66;232546;1205;24034;-74
2021/09/12 00:31:00;;;;;;;15.20;12.10;;;;;;;16.60;71.55;98749.82;232728;1204;22458;-74
2021/09/12 00:36:03;;;;;;;16.90;12.50;;;;;;;16.55;71.51;98748.33;232870;1205;24112;-74
2021/09/12 00:41:06;;;;;;;19.00;14.10;;;;;;;16.48;71.50;98748.69;232796;1198;24079;-75
2021/09/12 00:46:08;;;;;;;18.80;15.10;;;;;;;16.39;71.65;98752.17;232809;1204;25183;-74
2021/09/12 00:51:11;;;;;;;17.20;12.20;;;;;;;16.31;71.86;98747.02;232849;1198;24058;-74
2021/09/12 00:56:15;;;;;;;15.90;13.00;;;;;;;16.22;72.05;98747.91;232653;1204;22557;-74
2021/09/12 01:01:18;;;;;;;17.20;13.50;;;;;;;16.15;72.25;98745.26;232909;1205;22483;-72
2021/09/12 01:06:25;;;;;;;16.60;14.00;;;;;;;16.07;72.43;98746.85;232595;1212;25354;-74
2021/09/12 01:11:32;;;;;;;16.80;12.10;;;;;;;15.97;72.56;98752.98;232571;1205;24047;-74
2021/09/12 01:16:41;;;;;;;17.20;12.90;;;;;;;15.88;72.68;98750.65;233055;1205;22503;-74
2021/09/12 01:22:04;;;;;;;15.80;13.00;;;;;;;15.78;72.94;98745.05;232769;1205;24142;-75
2021/09/12 01:27:09;;;;;;;19.70;14.40;;;;;;;15.74;73.22;98739.71;232594;1209;25140;-72
2021/09/12 01:32:11;;;;;;;18.40;13.90;;;;;;;15.79;73.63;98736.25;232600;1205;24081;-75
2021/09/12 01:37:15;;;;;;;14.80;11.70;;;;;;;15.72;73.30;98740.41;232857;1204;22480;-73
2021/09/12 01:42:18;;;;;;;14.70;11.20;;;;;;;15.69;73.42;98738.45;232962;1204;24075;-74
2021/09/12 01:47:20;;;;;;;16.70;13.30;;;;;;;15.71;73.61;98741.84;232747;1198;24309;-72
2021/09/12 01:52:22;;;;;;;21.40;13.90;;;;;;;15.72;73.69;98740.19;232703;1206;24190;-73
2021/09/12 01:57:32;;;;;;;14.30;11.10;;;;;;;15.65;73.49;98741.04;232623;1205;24075;-75
2021/09/12 02:02:35;;;;;;;;;;;;;;;15.64;73.80;98733.84;232887;1205;24160;-74
2021/09/12 02:07:37;;;;;;;16.50;12.80;;;;;;;15.64;73.86;98734.75;232649;1206;22465;-75
2021/09/12 02:12:40;;;;;;;16.60;13.70;;;;;;;15.66;74.01;98738.38;233049;1204;24110;-74
2021/09/12 02:17:43;;;;;;;15.60;11.60;;;;;;;15.65;73.78;98738.43;232624;1208;24078;-72
2021/09/12 02:22:45;;;;;;;15.20;12.10;;;;;;;15.59;73.70;98743.83;232550;1209;24081;-75
2021/09/12 02:27:57;;;;;;;16.70;12.60;;;;;;;15.52;73.53;98744.76;232827;1208;22468;-75
2021/09/12 02:32:59;;;;;;;20.10;14.10;;;;;;;15.45;73.63;98747.06;232883;1203;22453;-74
2021/09/12 02:38:01;;;;;;;18.00;13.20;;;;;;;15.37;73.61;98751.91;232606;1209;24084;-73
2021/09/12 02:43:04;;;;;;;17.20;13.10;;;;;;;15.28;73.62;98749.67;232933;1209;24090;-74
2021/09/12 02:48:06;;;;;;;17.30;14.80;;;;;;;15.21;73.72;98742.54;232750;1209;24063;-73
2021/09/12 02:53:08;;;;;;;21.90;15.20;;;;;;;15.19;74.13;98743.70;232611;1208;22473;-74
2021/09/12 02:58:11;;;;;;;16.80;13.20;;;;;;;15.19;74.02;98748.29;233008;1203;22482;-73
2021/09/12 03:03:13;;;;;;;16.00;12.70;;;;;;;15.16;74.00;98751.41;232860;1208;24158;-74
2021/09/12 03:08:16;;;;;;;16.00;13.90;;;;;;;15.15;74.15;98743.35;233150;1203;24186;-75
2021/09/12 03:13:19;;;;;;;22.10;15.10;;;;;;;15.16;74.30;98747.33;232504;1205;24062;-75
2021/09/12 03:18:22;;;;;;;16.00;12.10;;;;;;;15.13;74.16;98766.29;232574;1207;22519;-74
2021/09/12 03:23:25;;;;;;;16.90;13.00;;;;;;;14.97;73.90;98761.15;232618;1205;23999;-75
2021/09/12 03:28:27;;;;;;;17.10;13.30;;;;;;;14.84;74.15;98758.48;233017;1208;24152;-72
2021/09/12 03:33:30;;;;;;;18.20;12.20;;;;;;;14.72;74.36;98762.79;232588;1199;24084;-72
2021/09/12 03:38:33;;;;;;;17.80;12.40;;;;;;;14.69;74.56;98764.45;233076;1205;24071;-74
2021/09/12 03:43:42;;;;;;;17.80;13.40;;;;;;;14.73;74.82;98762.55;232592;1205;22480;-74
2021/09/12 03:48:51;;;;;;;18.90;14.20;;;;;;;14.76;74.72;98762.19;232891;1206;24064;-74
2021/09/12 03:53:58;;;;;;;17.90;12.60;;;;;;;14.69;74.79;98769.45;232628;1206;24029;-73
2021/09/12 03:59:00;;;;;;;17.20;12.50;;;;;;;14.61;74.90;98765.23;232563;1206;25374;-75
2021/09/12 04:04:03;;;;;;;20.00;14.50;;;;;;;14.57;75.05;98759.70;232696;1206;22463;-75
2021/09/12 04:09:09;;;;;;;15.50;12.30;;;;;;;14.54;75.26;98763.11;232628;1205;22630;-74
2021/09/12 04:14:12;;;;;;;16.80;13.20;;;;;;;14.58;75.53;98762.42;232603;1205;24120;-74
2021/09/12 04:19:18;;;;;;;20.10;16.40;;;;;;;14.63;75.66;98758.21;233178;1205;24705;-75
2021/09/12 04:24:23;;;;;;;20.70;17.10;;;;;;;14.68;75.84;98755.40;233493;1205;24179;-74
2021/09/12 04:29:26;;;;;;;19.00;13.70;;;;;;;14.76;75.89;98757.71;232665;1209;25199;-75
2021/09/12 04:34:29;;;;;;;17.30;13.80;;;;;;;14.78;75.66;98761.46;232928;1209;24069;-74
2021/09/12 04:39:32;;;;;;;19.30;15.60;;;;;;;14.81;75.78;98773.23;232677;1209;24212;-75
2021/09/12 04:44:36;;;;;;;18.30;14.10;;;;;;;14.86;75.83;98775.94;232610;1205;25184;-74
2021/09/12 04:49:39;;;;;;;15.30;12.10;;;;;;;14.88;75.83;98783.96;232877;1205;25179;-73
2021/09/12 04:54:42;;;;;;;15.00;11.80;;;;;;;14.94;75.81;98783.59;232729;1209;22451;-74
2021/09/12 04:59:46;;;;;;;17.70;13.10;;;;;;;15.01;75.82;98786.23;232631;1205;24076;-74
2021/09/12 05:05:11;;;;;;;17.10;14.00;;;;;;;15.09;75.83;98785.17;233142;1205;24075;-75
2021/09/12 05:10:15;;;;;;;17.80;12.80;;;;;;;15.13;75.80;98786.51;233075;1204;23791;-75
2021/09/12 05:15:20;;;;;;;15.40;12.40;;;;;;;15.19;75.65;98778.88;232894;1206;25183;-74
2021/09/12 05:20:23;;;;;;;18.10;13.20;;;;;;;15.26;75.64;98777.52;233262;1205;24089;-75
2021/09/12 05:25:27;;;;;;;18.20;13.50;;;;;;;15.35;75.74;98776.36;233142;1205;25215;-75
2021/09/12 05:30:31;;;;;;;15.30;11.70;;;;;;;15.45;75.79;98775.02;232673;1205;25293;-73
2021/09/12 05:35:34;;;;;;;15.40;11.20;;;;;;;15.59;75.76;98780.45;232806;1205;24056;-75
2021/09/12 05:40:36;;;;;;;14.40;12.20;;;;;;;15.72;75.65;98779.59;233277;1205;25220;-75
2021/09/12 05:45:40;;;;;;;15.40;12.50;;;;;;;15.83;75.44;98783.71;232950;1205;25411;-75
2021/09/12 05:50:52;;;;;;;13.20;10.30;;;;;;;15.96;75.39;98785.84;232592;1206;24098;-73
2021/09/12 05:56:18;;;;;;;14.30;11.50;;;;;;;16.13;75.18;98787.94;232945;1201;25207;-73
2021/09/12 06:01:21;;;;;;;13.10;11.20;;;;;;;16.35;74.92;98790.59;233102;1205;22907;-75
2021/09/12 06:06:24;;;;;;;12.70;11.40;;;;;;;16.60;74.71;98789.89;233061;1205;25131;-75
2021/09/12 06:11:27;;;;;;;12.30;10.60;;;;;;;16.83;74.26;98789.86;232928;1208;24091;-74
2021/09/12 06:16:31;;;;;;;16.00;12.00;;;;;;;17.01;73.70;98794.77;232766;1208;24300;-73
2021/09/12 06:21:34;;;;;;;13.10;11.10;;;;;;;17.19;73.66;98798.70;233164;1205;24105;-75
2021/09/12 06:26:39;;;;;;;10.90;9.20;;;;;;;17.38;73.48;98798.05;232911;1205;23995;-74
2021/09/12 06:31:42;;;;;;;11.40;10.00;;;;;;;17.52;72.72;98803.85;233097;1198;24105;-74
2021/09/12 06:36:45;;;;;;;11.90;10.50;;;;;;;17.63;72.69;98803.09;232595;1205;22469;-75
2021/09/12 06:41:48;;;;;;;11.80;10.10;;;;;;;17.83;72.49;98799.80;232977;1205;25183;-74
2021/09/12 06:46:50;;;;;;;11.90;10.70;;;;;;;18.08;72.46;98800.56;233001;1205;24004;-73
2021/09/12 06:52:08;;;;;;;13.10;10.10;;;;;;;18.42;72.37;98800.86;232981;1205;25284;-74
2021/09/12 06:57:13;;;;;;;10.90;9.50;;;;;;;18.69;71.94;98804.54;233552;1199;22482;-75
2021/09/12 07:02:15;;;;;;;17.10;11.60;;;;;;;18.96;71.60;98807.45;233042;1209;24046;-74
2021/09/12 07:07:19;;;;;;;13.20;11.70;;;;;;;19.16;70.98;98808.57;232770;1205;24091;-74
2021/09/12 07:12:21;;;;;;;12.90;10.50;;;;;;;19.36;70.94;98813.73;233315;1205;25166;-75
2021/09/12 07:17:24;;;;;;;11.80;10.60;;;;;;;19.60;70.81;98819.80;233311;1205;24058;-74
2021/09/12 07:22:27;;;;;;;13.20;11.10;;;;;;;19.82;70.45;98823.10;233239;1205;24140;-74
2021/09/12 07:27:30;;;;;;;12.70;11.40;;;;;;;20.03;70.31;98815.09;233100;1212;24096;-74
2021/09/12 07:32:55;;;;;;;11.80;10.60;;;;;;;20.26;69.67;98819.38;232631;1203;24359;-75
2021/09/12 07:37:58;;;;;;;12.30;11.10;;;;;;;20.35;69.31;98816.80;233129;1208;24071;-75
2021/09/12 07:43:03;;;;;;;13.00;11.20;;;;;;;20.55;69.38;98825.11;232594;1207;24091;-76
2021/09/12 07:48:12;;;;;;;12.50;11.30;;;;;;;20.85;69.15;98826.72;232565;1207;22470;-75
2021/09/12 07:53:15;;;;;;;;;;;;;;;21.03;68.21;98828.38;232582;1208;24073;-75
2021/09/12 07:58:17;;;;;;;12.90;11.50;;;;;;;21.06;67.50;98824.91;232589;1205;25334;-74
2021/09/12 08:03:26;;;;;;;12.00;10.70;;;;;;;21.07;67.37;98830.15;232623;1208;24129;-75
2021/09/12 08:08:29;;;;;;;11.30;10.20;;;;;;;21.16;66.77;98835.16;233086;1204;24070;-74
2021/09/12 08:13:45;;;;;;;11.50;10.40;;;;;;;21.17;66.64;98837.66;233170;1198;24096;-74
2021/09/12 08:18:49;;;;;;;13.80;11.30;;;;;;;21.34;66.72;98840.58;232963;1205;22452;-76
2021/09/12 08:24:00;;;;;;;12.80;10.60;;;;;;;21.56;66.91;98841.89;232624;1206;24105;-73
2021/09/12 08:29:10;;;;;;;12.30;11.10;;;;;;;21.81;66.09;98845.15;232984;1204;22467;-74
2021/09/12 08:34:13;;;;;;;12.20;10.70;;;;;;;21.99;66.11;98841.73;232472;1205;24298;-75
2021/09/12 08:39:15;;;;;;;11.40;10.10;;;;;;;22.23;65.62;98840.42;232536;1207;22630;-74
2021/09/12 08:44:19;;;;;;;10.50;9.40;;;;;;;22.37;65.09;98842.21;232573;1205;22494;-75
2021/09/12 08:49:21;;;;;;;11.30;10.10;;;;;;;22.40;64.42;98843.91;232747;1204;24064;-74
2021/09/12 08:54:24;;;;;;;11.90;10.60;;;;;;;22.51;64.64;98846.66;232820;1204;24061;-75
2021/09/12 08:59:30;;;;;;;12.40;10.30;;;;;;;22.74;64.31;98845.61;232544;1205;24071;-75
2021/09/12 09:04:34;;;;;;;10.90;9.70;;;;;;;22.79;63.57;98843.09;232703;1204;22736;-74
2021/09/12 09:09:46;;;;;;;10.20;9.00;;;;;;;22.81;63.63;98846.55;232867;1204;25404;-75
2021/09/12 09:15:08;;;;;;;11.80;9.60;;;;;;;22.82;63.21;98846.64;232398;1207;22597;-75
2021/09/12 09:20:15;;;;;;;11.00;9.80;;;;;;;22.95;63.93;98850.24;232537;1205;22502;-73
2021/09/12 09:25:22;;;;;;;9.70;8.80;;;;;;;23.21;63.64;98852.34;232783;1204;26210;-75
2021/09/12 09:30:26;;;;;;;9.60;8.60;;;;;;;23.38;62.95;98847.77;232962;1198;22563;-74
2021/09/12 09:35:29;;;;;;;9.40;8.50;;;;;;;23.44;62.17;98849.17;232439;1200;22559;-74
2021/09/12 09:40:31;;;;;;;9.20;8.10;;;;;;;23.41;61.68;98851.95;232482;1200;26521;-74
2021/09/12 09:45:38;;;;;;;9.30;8.40;;;;;;;23.45;61.91;98846.84;233068;1204;24090;-75
2021/09/12 09:50:42;;;;;;;8.10;7.20;;;;;;;23.66;61.91;98848.17;232781;1207;24703;-75
2021/09/12 09:55:53;;;;;;;8.00;7.20;;;;;;;23.88;61.36;98842.15;233005;1201;22498;-75
2021/09/12 10:00:56;;;;;;;10.80;9.50;;;;;;;23.89;60.46;98843.04;232927;1204;24104;-75
2021/09/12 10:05:59;;;;;;;9.30;8.40;;;;;;;23.83;60.53;98838.42;232448;1205;25132;-76
2021/09/12 10:11:02;;;;;;;9.30;8.40;;;;;;;23.93;61.03;98833.20;232693;1206;24101;-76
2021/09/12 10:16:07;;;;;;;8.90;8.10;;;;;;;24.04;60.44;98833.64;232988;1204;24128;-75
2021/09/12 10:21:22;;;;;;;9.50;8.60;;;;;;;23.87;60.08;98829.80;232790;1200;22834;-75
2021/09/12 10:26:43;;;;;;;8.10;7.30;;;;;;;23.87;60.40;98821.42;232590;1205;24135;-75
2021/09/12 10:31:45;;;;;;;8.20;7.40;;;;;;;23.72;59.88;98820.73;232906;1204;23943;-75
2021/09/12 10:36:48;;;;;;;8.90;8.00;;;;;;;23.63;60.47;98818.05;232525;1206;24096;-75
2021/09/12 10:42:09;;;;;;;9.30;8.40;;;;;;;23.59;60.54;98813.79;232475;1207;23115;-75
2021/09/12 10:47:21;;;;;;;9.10;7.40;;;;;;;23.68;61.10;98805.39;232747;1198;24083;-76
2021/09/12 10:52:56;;;;;;;8.80;8.00;;;;;;;23.83;60.93;98801.22;232552;1206;24070;-73
2021/09/12 10:57:58;;;;;;;7.90;7.10;;;;;;;23.96;60.78;98802.08;232589;1198;24552;-74
2021/09/12 11:03:02;;;;;;;8.20;7.40;;;;;;;23.96;60.73;98796.20;232666;1205;24702;-72
2021/09/12 11:08:05;;;;;;;6.30;5.70;;;;;;;23.91;60.28;98793.89;233067;1204;22467;-75
2021/09/12 11:13:08;;;;;;;7.30;6.60;;;;;;;23.71;59.91;98789.00;232977;1204;24103;-73
2021/09/12 11:18:11;;;;;;;7.40;6.70;;;;;;;23.79;60.77;98784.92;232978;1204;22656;-75
2021/09/12 11:23:28;;;;;;;7.20;6.50;;;;;;;23.89;60.27;98784.89;232744;1204;22603;-75
2021/09/12 11:28:33;;;;;;;6.40;5.80;;;;;;;23.94;60.25;98776.80;232702;1206;22713;-75
2021/09/12 11:33:46;;;;;;;6.30;5.70;;;;;;;24.01;59.50;98766.63;232565;1197;24033;-75
2021/09/12 11:38:59;;;;;;;6.10;5.60;;;;;;;24.09;59.23;98759.10;232955;1204;25137;-74
2021/09/12 11:44:02;;;;;;;6.00;5.40;;;;;;;24.17;59.13;98756.73;232752;1204;24145;-76
2021/09/12 11:49:07;;;;;;;6.30;5.70;;;;;;;24.27;58.93;98745.15;232943;1207;22464;-75
2021/09/12 11:54:16;;;;;;;4.90;4.50;;;;;;;24.33;58.51;98742.98;233283;1206;23099;-74
2021/09/12 11:59:20;;;;;;;4.90;4.50;;;;;;;24.42;57.73;98739.84;233038;1204;25093;-74
2021/09/12 12:04:23;;;;;;;5.00;4.60;;;;;;;24.58;57.25;98737.27;232554;1199;24063;-74
2021/09/12 12:09:38;;;;;;;4.10;3.70;;;;;;;24.84;56.94;98728.80;233104;1196;24645;-74
2021/09/12 12:15:04;;;;;;;4.50;4.10;;;;;;;25.14;55.61;98726.00;232911;1205;22493;-73
2021/09/12 12:20:16;;;;;;;4.90;4.50;;;;;;;25.25;54.86;98719.14;233312;1204;22466;-75
2021/09/12 12:25:29;;;;;;;4.50;4.20;;;;;;;25.39;54.42;98713.86;232854;1204;22464;-75
2021/09/12 12:30:32;;;;;;;5.30;4.90;;;;;;;25.37;53.75;98703.52;233056;1204;24040;-74
2021/09/12 12:35:34;;;;;;;4.70;4.30;;;;;;;25.37;53.41;98698.52;232776;1204;22467;-75
2021/09/12 12:40:37;;;;;;;5.00;4.60;;;;;;;25.42;53.42;98698.36;233073;1204;24790;-73
2021/09/12 12:45:39;;;;;;;4.80;4.40;;;;;;;25.64;54.05;98695.86;232831;1205;24610;-72
2021/09/12 12:50:45;;;;;;;5.70;4.90;;;;;;;25.77;52.49;98693.98;233090;1198;23097;-73
2021/09/12 12:55:57;;;;;;;5.00;4.50;;;;;;;25.83;51.84;98684.80;232999;1200;22847;-74
2021/09/12 13:01:05;;;;;;;4.80;4.40;;;;;;;25.98;51.70;98681.49;233262;1204;25198;-75
2021/09/12 13:06:11;;;;;;;6.30;5.60;;;;;;;26.02;51.74;98675.16;233069;1204;22566;-75
2021/09/12 13:11:13;;;;;;;5.80;5.30;;;;;;;26.03;51.17;98672.81;233194;1204;25196;-76
2021/09/12 13:16:21;;;;;;;6.30;5.70;;;;;;;26.02;51.15;98675.09;232624;1205;24142;-75
2021/09/12 13:21:24;;;;;;;5.40;5.00;;;;;;;26.07;50.85;98673.35;232802;1197;24031;-74
2021/09/12 13:26:27;;;;;;;5.30;4.90;;;;;;;26.17;50.99;98673.24;232648;1206;24080;-75
2021/09/12 13:31:33;;;;;;;4.90;4.50;;;;;;;26.37;50.74;98670.52;232863;1200;22505;-73
2021/09/12 13:36:36;;;;;;;4.80;4.40;;;;;;;26.57;50.07;98661.04;232785;1204;22509;-72
2021/09/12 13:41:39;;;;;;;5.30;4.90;;;;;;;26.70;50.22;98664.91;233008;1204;22459;-74
2021/09/12 13:46:41;;;;;;;5.20;4.80;;;;;;;26.81;49.85;98668.95;232677;1204;24706;-77
2021/09/12 13:51:44;;;;;;;5.10;4.70;;;;;;;26.84;49.58;98670.14;232783;1197;25228;-76
2021/09/12 13:56:47;;;;;;;5.20;4.80;;;;;;;26.76;49.72;98665.30;232713;1204;24064;-76
2021/09/12 14:01:49;;;;;;;4.70;4.20;;;;;;;26.72;49.94;98661.32;232808;1204;26599;-74
2021/09/12 14:06:52;;;;;;;5.60;5.10;;;;;;;26.75;49.85;98657.76;232708;1196;22484;-75
2021/09/12 14:11:54;;;;;;;6.30;5.70;;;;;;;26.91;49.60;98660.73;232808;1204;24082;-74
2021/09/12 14:16:57;;;;;;;6.20;5.70;;;;;;;26.94;50.03;98655.46;232848;1204;24004;-75
2021/09/12 14:22:00;;;;;;;7.10;6.50;;;;;;;26.81;50.64;98657.02;232796;1197;24603;-75
2021/09/12 14:27:03;;;;;;;7.30;6.60;;;;;;;26.58;50.85;98656.09;232652;1206;24085;-75
2021/09/12 14:32:06;;;;;;;7.30;6.70;;;;;;;26.24;51.14;98656.38;232860;1204;24201;-75
2021/09/12 14:37:09;;;;;;;7.90;7.20;;;;;;;25.84;51.55;98654.85;232908;1204;25259;-74
2021/09/12 14:42:14;;;;;;;7.70;6.90;;;;;;;25.38;51.90;98653.23;232856;1205;22450;-75
2021/09/12 14:47:18;;;;;;;8.00;7.30;;;;;;;24.91;52.61;98653.52;232760;1197;25180;-75
2021/09/12 14:52:21;;;;;;;7.60;6.90;;;;;;;24.54;53.55;98652.92;232619;1205;22482;-75
2021/09/12 14:57:26;;;;;;;8.10;7.40;;;;;;;24.31;54.12;98652.02;232958;1204;25319;-74
2021/09/12 15:02:29;;;;;;;7.70;7.00;;;;;;;24.12;54.74;98657.88;232798;1204;22573;-75
2021/09/12 15:07:32;;;;;;;9.80;7.80;;;;;;;23.91;56.13;98664.54;232833;1204;22453;-75
2021/09/12 15:12:34;;;;;;;8.40;6.60;;;;;;;23.53;58.13;98657.67;232657;1198;25331;-73
2021/09/12 15:17:38;;;;;;;7.10;5.30;;;;;;;23.06;59.83;98646.94;232613;1206;22487;-72
2021/09/12 15:22:56;;;;;;;7.30;6.20;;;;;;;22.61;61.74;98646.90;232786;1200;22778;-74
2021/09/12 15:28:20;;;;;;;5.10;4.70;;;;;;;22.16;63.40;98650.21;232983;1204;24072;-74
2021/09/12 15:33:22;;;;;;;4.60;4.20;;;;;;;21.90;64.47;98648.67;232593;1205;22459;-74
2021/09/12 15:38:25;;;;;;;6.20;5.70;;;;;;;21.76;64.67;98654.30;232802;1204;24171;-74
2021/09/12 15:43:29;;;;;;;7.30;6.50;;;;;;;21.62;65.66;98649.59;232688;1204;22581;-72
2021/09/12 15:48:32;;;;;;;7.50;6.50;;;;;;;21.55;66.66;98650.48;232743;1199;22465;-74
2021/09/12 15:53:35;;;;;;;7.20;6.60;;;;;;;21.48;67.23;98646.21;232597;1204;24059;-75
2021/09/12 15:58:37;;;;;;;7.00;6.10;;;;;;;21.44;67.83;98646.77;232793;1204;24071;-74
2021/09/12 16:03:40;;;;;;;7.80;7.00;;;;;;;21.38;68.30;98642.70;232824;1198;24094;-74
2021/09/12 16:08:42;;;;;;;7.70;7.00;;;;;;;21.33;68.68;98642.92;232834;1204;24166;-74
2021/09/12 16:13:45;;;;;;;8.40;6.70;;;;;;;21.25;69.05;98640.61;232591;1205;24653;-72
2021/09/12 16:18:49;;;;;;;8.10;6.90;;;;;;;21.18;69.48;98637.08;232716;1204;24680;-73
2021/09/12 16:23:52;;;;;;;8.60;7.00;;;;;;;21.12;69.89;98633.31;232632;1204;24081;-75
2021/09/12 16:28:54;;;;;;;7.40;6.30;;;;;;;21.07;70.29;98626.75;232694;1205;24046;-73
2021/09/12 16:33:57;;;;;;;8.50;7.50;;;;;;;21.01;70.76;98628.06;232630;1204;22468;-74
2021/09/12 16:39:02;;;;;;;7.50;6.80;;;;;;;20.98;71.37;98627.30;232568;1204;22466;-74
2021/09/12 16:44:08;;;;;;;7.30;6.60;;;;;;;20.96;71.65;98630.23;232632;1204;24091;-74
2021/09/12 16:49:14;;;;;;;65.70;55.70;;;;;;;20.93;71.94;98628.91;232807;1204;23797;-75
2021/09/12 16:54:16;;;;;;;9.20;8.30;;;;;;;20.89;72.31;98631.64;232467;1205;22482;-74
2021/09/12 16:59:20;;;;;;;9.60;7.70;;;;;;;20.87;72.69;98630.44;232602;1205;25218;-74
2021/09/12 17:04:22;;;;;;;8.70;7.60;;;;;;;20.85;72.99;98629.17;232593;1198;24041;-74
2021/09/12 17:09:25;;;;;;;10.80;8.80;;;;;;;20.85;73.13;98630.02;232714;1204;24146;-74
2021/09/12 17:14:27;;;;;;;10.80;8.70;;;;;;;20.83;73.55;98629.77;232660;1197;25092;-74
2021/09/12 17:19:30;;;;;;;10.10;8.50;;;;;;;20.84;73.94;98630.39;232746;1204;24129;-74
2021/09/12 17:24:33;;;;;;;11.60;9.00;;;;;;;20.81;74.10;98634.16;232660;1204;24103;-74
2021/09/12 17:29:36;;;;;;;11.70;9.70;;;;;;;20.77;74.34;98639.98;232810;1204;25366;-74
2021/09/12 17:34:39;;;;;;;11.00;9.90;;;;;;;20.66;74.34;98645.42;232650;1204;24197;-74
2021/09/12 17:39:42;;;;;;;10.40;8.90;;;;;;;20.53;74.55;98644.14;232787;1204;24158;-75
2021/09/12 17:44:45;;;;;;;10.50;8.90;;;;;;;20.44;74.84;98644.59;232748;1204;24064;-75
2021/09/12 17:49:47;;;;;;;9.70;8.70;;;;;;;20.30;75.17;98644.46;232952;1201;22473;-73
2021/09/12 17:54:50;;;;;;;10.30;8.80;;;;;;;20.13;75.41;98650.55;233325;1198;24068;-74
2021/09/12 17:59:53;;;;;;;11.00;9.40;;;;;;;19.95;75.90;98654.43;234226;1204;24120;-74
2021/09/12 18:04:55;;;;;;;13.80;11.10;;;;;;;19.80;76.16;98653.22;233064;1204;24103;-73
2021/09/12 18:10:06;;;;;;;14.70;11.30;;;;;;;19.65;76.80;98648.04;232898;1204;25217;-74
2021/09/12 18:15:23;;;;;;;15.60;11.80;;;;;;;19.48;77.11;98640.34;232640;1204;24048;-74
2021/09/12 18:20:26;;;;;;;13.40;10.80;;;;;;;19.40;77.69;98638.98;233013;1205;22454;-75
2021/09/12 18:25:28;;;;;;;13.70;11.20;;;;;;;19.40;78.46;98635.80;232696;1204;24018;-75
2021/09/12 18:30:32;;;;;;;14.00;12.40;;;;;;;19.43;78.65;98638.60;232984;1205;24176;-74
2021/09/12 18:35:36;;;;;;;12.30;10.70;;;;;;;19.39;78.71;98648.11;232660;1205;25300;-74
2021/09/12 18:40:38;;;;;;;11.50;10.20;;;;;;;19.35;78.70;98650.16;232723;1204;22486;-75
2021/09/12 18:45:42;;;;;;;13.80;10.20;;;;;;;19.32;78.93;98655.55;232716;1200;24159;-74
2021/09/12 18:50:44;;;;;;;13.00;10.00;;;;;;;19.25;78.75;98663.04;232747;1198;25061;-75
2021/09/12 18:55:46;;;;;;;11.70;9.80;;;;;;;19.12;78.54;98671.95;232575;1204;22500;-75
2021/09/12 19:00:50;;;;;;;12.50;11.20;;;;;;;18.97;78.69;98682.41;232818;1204;22467;-72
2021/09/12 19:05:54;;;;;;;13.40;11.30;;;;;;;18.81;78.79;98688.48;232775;1204;22568;-73
2021/09/12 19:11:03;;;;;;;12.40;10.60;;;;;;;18.71;79.31;98689.63;232709;1205;22474;-72
2021/09/12 19:16:07;;;;;;;12.60;11.10;;;;;;;18.67;79.67;98685.27;232719;1208;24255;-74
2021/09/12 19:21:09;;;;;;;13.40;11.30;;;;;;;18.69;79.90;98681.22;233048;1205;22512;-72
2021/09/12 19:26:12;;;;;;;13.90;10.60;;;;;;;18.65;79.81;98678.08;232688;1203;24086;-74
2021/09/12 19:31:15;;;;;;;12.20;10.90;;;;;;;18.57;79.93;98676.23;232681;1205;24766;-73
2021/09/12 19:36:18;;;;;;;13.20;10.20;;;;;;;18.54;80.41;98686.00;233362;1201;24118;-74
2021/09/12 19:41:22;;;;;;;11.70;10.20;;;;;;;18.60;80.72;98688.42;232754;1209;22404;-74
2021/09/12 19:46:24;;;;;;;12.80;11.50;;;;;;;18.62;80.75;98690.02;232691;1206;25207;-75
2021/09/12 19:51:27;;;;;;;12.10;10.30;;;;;;;18.67;80.91;98696.89;233078;1198;22605;-75
2021/09/12 19:56:30;;;;;;;13.40;10.40;;;;;;;18.55;80.56;98693.08;233056;1198;22454;-75
2021/09/12 20:01:33;;;;;;;12.40;10.50;;;;;;;18.45;80.73;98691.40;233036;1204;24083;-75
2021/09/12 20:06:36;;;;;;;11.20;10.00;;;;;;;18.39;80.98;98689.05;233149;1205;22455;-74
2021/09/12 20:11:39;;;;;;;12.90;10.20;;;;;;;18.34;81.23;98682.33;233142;1205;24077;-76
2021/09/12 20:16:43;;;;;;;12.00;10.60;;;;;;;18.26;81.58;98686.02;233158;1208;24072;-75
2021/09/12 20:21:46;;;;;;;11.40;9.70;;;;;;;18.17;81.82;98691.48;232932;1206;24288;-74
2021/09/12 20:26:48;;;;;;;12.50;9.30;;;;;;;18.15;82.08;98695.52;233045;1203;22502;-74
2021/09/12 20:31:51;;;;;;;11.60;9.00;;;;;;;18.14;82.28;98692.47;232781;1205;24186;-73
2021/09/12 20:36:53;;;;;;;9.60;8.60;;;;;;;18.12;82.40;98693.20;232679;1205;24074;-75
2021/09/12 20:41:55;;;;;;;11.80;9.30;;;;;;;18.10;82.48;98699.80;232632;1203;25298;-74
2021/09/12 20:46:58;;;;;;;10.20;8.50;;;;;;;18.07;82.40;98709.69;232737;1209;22496;-75
2021/09/12 20:52:00;;;;;;;9.20;7.80;;;;;;;17.99;82.25;98708.27;232896;1205;25201;-75
2021/09/12 20:57:03;;;;;;;11.20;9.40;;;;;;;17.91;82.33;98709.05;233019;1205;24129;-74
2021/09/12 21:02:05;;;;;;;11.20;9.30;;;;;;;17.85;82.50;98712.16;233136;1204;24542;-75
2021/09/12 21:07:11;;;;;;;9.90;8.00;;;;;;;17.80;82.48;98730.73;233076;1203;25207;-75
2021/09/12 21:12:14;;;;;;;8.50;7.40;;;;;;;17.72;82.32;98734.80;232648;1206;24176;-75
2021/09/12 21:17:18;;;;;;;8.70;7.80;;;;;;;17.66;82.37;98735.84;232799;1205;24107;-74
2021/09/12 21:22:21;;;;;;;7.90;6.60;;;;;;;17.67;82.51;98733.57;232659;1205;24075;-73
2021/09/12 21:27:23;;;;;;;9.00;6.80;;;;;;;17.63;82.15;98727.84;233008;1203;25217;-73
2021/09/12 21:32:26;;;;;;;9.50;6.10;;;;;;;17.56;82.10;98728.33;232669;1208;24140;-76
2021/09/12 21:37:28;;;;;;;8.80;7.30;;;;;;;17.52;82.16;98727.89;233192;1204;22469;-74
2021/09/12 21:42:31;;;;;;;8.80;7.30;;;;;;;17.53;82.28;98724.50;233092;1209;22447;-73
2021/09/12 21:47:33;;;;;;;9.00;7.50;;;;;;;17.51;82.27;98721.44;233199;1204;24105;-75
2021/09/12 21:52:36;;;;;;;8.50;6.70;;;;;;;17.50;82.26;98720.22;232855;1209;24271;-75
2021/09/12 21:57:42;;;;;;;7.50;6.80;;;;;;;17.49;82.20;98716.27;232640;1205;24042;-75
2021/09/12 22:02:45;;;;;;;7.90;7.10;;;;;;;17.58;82.81;98721.04;232582;1206;24112;-74
2021/09/12 22:07:48;;;;;;;7.10;6.30;;;;;;;17.64;82.49;98723.77;232499;1203;24185;-75
2021/09/12 22:12:51;;;;;;;8.50;6.50;;;;;;;17.53;81.70;98722.73;232521;1205;25300;-74
2021/09/12 22:17:54;;;;;;;8.20;6.10;;;;;;;17.41;81.67;98722.31;233147;1206;22573;-72
2021/09/12 22:23:13;;;;;;;8.80;7.70;;;;;;;17.35;81.90;98721.48;232632;1209;24043;-75
2021/09/12 22:28:17;;;;;;;7.20;6.50;;;;;;;17.29;82.07;98712.25;233367;1205;22573;-74
2021/09/12 22:33:23;;;;;;;7.30;6.60;;;;;;;17.27;82.21;98712.80;233231;1199;24054;-74
2021/09/12 22:38:25;;;;;;;7.70;6.80;;;;;;;17.28;82.30;98711.45;232833;1205;22470;-75
2021/09/12 22:43:27;;;;;;;8.10;7.30;;;;;;;17.30;82.28;98710.66;232562;1206;22486;-74
2021/09/12 22:48:41;;;;;;;8.80;7.00;;;;;;;17.25;82.37;98717.91;233098;1209;24108;-74
2021/09/12 22:53:44;;;;;;;8.30;6.60;;;;;;;17.21;82.49;98713.63;233092;1205;24103;-73
2021/09/12 22:58:47;;;;;;;7.70;6.40;;;;;;;17.28;82.61;98714.98;232551;1212;24102;-74
2021/09/12 23:03:50;;;;;;;8.10;6.60;;;;;;;17.28;82.20;98719.80;232762;1205;24182;-75
2021/09/12 23:08:54;;;;;;;6.20;5.50;;;;;;;17.26;82.11;98720.51;233281;1205;24218;-74
2021/09/12 23:13:57;;;;;;;7.40;5.90;;;;;;;17.30;82.21;98720.96;232872;1209;22476;-72
2021/09/12 23:19:01;;;;;;;7.40;6.60;;;;;;;17.36;82.07;98721.23;232559;1208;24063;-75